Time;durP1;ratioP1;P1;durP2;ratioP2;P2;SDS_P1;SDS_P2;PMS_P1;PMS_P2;Temp;Humidity;BMP_temperature;BMP_pressure;BME280_temperature;BME280_humidity;BME280_pressure;Samples;Min_cycle;Max_cycle;Signal;HPM_P1;HPM_P2
2022/01/23 00:00:05;;;;;;;8.82;3.83;;;6.20;99.90;;;;;;2111143;67;20185;-75
2022/01/23 00:02:51;;;;;;;7.90;3.33;;;6.10;99.90;;;;;;2128172;67;20237;-74
2022/01/23 00:05:39;;;;;;;11.60;3.33;;;6.20;99.90;;;;;;2119571;67;20320;-74
2022/01/23 00:08:24;;;;;;;5.72;3.10;;;6.20;99.90;;;;;;2127728;67;20180;-74
2022/01/23 00:11:09;;;;;;;6.20;2.95;;;6.20;99.90;;;;;;2125068;67;20184;-73
2022/01/23 00:19:42;;;;;;;5.05;2.88;;;7.20;99.90;;;;;;2118202;67;20310;-75
2022/01/23 00:22:36;;;;;;;6.50;2.40;;;6.20;99.90;;;;;;2111274;67;20252;-74
2022/01/23 00:31:28;;;;;;;6.50;2.83;;;6.20;99.90;;;;;;2134700;67;20243;-76
2022/01/23 00:34:09;;;;;;;5.93;2.63;;;6.20;99.90;;;;;;2139809;67;20275;-75
2022/01/23 00:36:48;;;;;;;5.35;3.15;;;6.20;99.90;;;;;;2140247;66;20178;-76
2022/01/23 00:39:28;;;;;;;7.30;2.75;;;6.20;99.90;;;;;;2153837;66;20838;-75
2022/01/23 00:42:06;;;;;;;6.63;3.47;;;6.20;99.90;;;;;;2155392;66;20296;-75
2022/01/23 00:47:50;;;;;;;7.20;3.58;;;6.20;99.90;;;;;;2164844;66;20184;-74
2022/01/23 00:50:28;;;;;;;7.95;4.53;;;6.20;99.90;;;;;;2183012;65;20178;-74
2022/01/23 00:53:19;;;;;;;8.50;4.20;;;6.20;99.90;;;;;;2186317;65;20174;-73
2022/01/23 00:55:52;;;;;;;5.63;3.30;;;6.20;99.90;;;;;;2191629;64;20764;-75
2022/01/23 00:58:44;;;;;;;7.50;3.65;;;6.20;99.90;;;;;;2205861;64;20820;-74
2022/01/23 01:01:39;;;;;;;5.70;3.25;;;6.20;99.90;;;;;;2190500;65;20684;-75
2022/01/23 01:04:17;;;;;;;11.50;7.10;;;6.40;99.90;;;;;;2185660;65;20302;-74
2022/01/23 01:06:56;;;;;;;12.77;6.70;;;6.20;99.90;;;;;;2190163;65;20190;-74
2022/01/23 01:09:32;;;;;;;7.45;3.65;;;6.10;99.90;;;;;;2191051;65;20219;-74
2022/01/23 01:12:17;;;;;;;6.20;3.60;;;6.20;99.90;;;;;;2202747;65;20384;-74
2022/01/23 01:15:22;;;;;;;11.90;4.18;;;6.20;99.90;;;;;;2206106;65;20176;-74
2022/01/23 01:32:28;;;;;;;7.05;4.00;;;6.10;99.90;;;;;;2198479;65;20247;-74
2022/01/23 01:35:28;;;;;;;5.75;4.15;;;6.10;99.90;;;;;;2186869;65;20278;-73
2022/01/23 01:38:11;;;;;;;8.98;5.63;;;6.10;99.90;;;;;;2190227;65;20555;-75
2022/01/23 01:40:54;;;;;;;7.30;4.43;;;6.00;99.90;;;;;;2185848;65;20371;-74
2022/01/23 01:43:39;;;;;;;7.55;4.82;;;6.00;99.90;;;;;;2168987;65;20726;-74
2022/01/23 01:46:22;;;;;;;11.57;3.97;;;6.00;99.90;;;;;;2170871;65;20264;-74
2022/01/23 01:49:04;;;;;;;6.18;3.92;;;6.10;99.90;;;;;;2156683;66;20743;-73
2022/01/23 01:51:45;;;;;;;7.35;4.32;;;6.10;99.90;;;;;;2148164;66;20778;-74
2022/01/23 01:54:30;;;;;;;7.70;4.13;;;6.00;99.90;;;;;;2132374;67;20332;-74
2022/01/23 01:57:13;;;;;;;7.47;4.22;;;6.10;99.90;;;;;;2117658;67;20369;-74
2022/01/23 02:00:14;;;;;;;10.00;5.03;;;6.10;99.90;;;;;;2105782;67;20211;-74
2022/01/23 02:08:47;;;;;;;5.80;4.47;;;6.20;99.90;;;;;;2136129;66;20308;-74
2022/01/23 02:12:03;;;;;;;9.80;4.75;;;6.10;99.90;;;;;;2140212;66;20223;-74
2022/01/23 02:51:25;;;;;;;8.05;4.82;;;6.00;99.90;;;;;;2124805;67;20286;-74
2022/01/23 02:54:27;;;;;;;10.75;5.72;;;6.10;99.90;;;;;;2124654;67;20176;-74
2022/01/23 02:57:12;;;;;;;13.68;4.95;;;6.10;99.90;;;;;;2120104;67;20184;-74
2022/01/23 02:59:56;;;;;;;9.77;4.82;;;6.10;99.90;;;;;;2113102;67;20299;-75
2022/01/23 03:03:03;;;;;;;14.73;6.63;;;6.00;99.90;;;;;;2131663;67;20329;-73
2022/01/23 03:05:58;;;;;;;8.45;5.35;;;6.10;99.90;;;;;;2104696;67;20366;-73
2022/01/23 03:26:21;;;;;;;10.02;4.68;;;6.10;99.90;;;;;;2111215;67;20248;-73
2022/01/23 03:34:35;;;;;;;8.73;3.72;;;6.10;99.90;;;;;;2112416;67;20293;-73
2022/01/23 03:37:16;;;;;;;7.55;4.25;;;6.10;99.90;;;;;;2127923;67;20196;-73
2022/01/23 03:39:58;;;;;;;10.00;3.80;;;5.90;99.90;;;;;;2115937;67;20177;-73
2022/01/23 03:42:42;;;;;;;8.80;4.13;;;6.10;99.90;;;;;;2106919;67;20420;-74
2022/01/23 03:50:53;;;;;;;7.25;4.65;;;6.10;99.90;;;;;;2082716;68;20251;-74
2022/01/23 03:53:35;;;;;;;5.82;3.90;;;6.10;99.90;;;;;;2097482;68;20302;-75
2022/01/23 03:56:18;;;;;;;8.02;4.05;;;6.10;99.90;;;;;;2090662;68;20271;-74
2022/01/23 03:59:01;;;;;;;10.52;4.47;;;6.10;99.90;;;;;;2088399;68;20231;-74
2022/01/23 04:01:43;;;;;;;10.30;4.80;;;6.10;99.90;;;;;;2087658;68;20832;-75
2022/01/23 04:07:36;;;;;;;13.57;4.90;;;6.10;99.90;;;;;;2096561;68;20847;-74
2022/01/23 04:10:20;;;;;;;7.53;4.43;;;6.10;99.90;;;;;;2098502;68;20186;-73
2022/01/23 04:13:24;;;;;;;12.32;5.32;;;6.10;99.90;;;;;;2103296;67;20459;-74
2022/01/23 04:46:13;;;;;;;10.00;5.28;;;6.00;99.90;;;;;;2119998;67;20346;-73
2022/01/23 04:48:52;;;;;;;10.63;5.63;;;6.00;99.90;;;;;;2119384;67;20189;-74
2022/01/23 05:00:15;;;;;;;11.20;5.60;;;6.00;99.90;;;;;;2117367;67;20362;-73
2022/01/23 05:05:47;;;;;;;8.32;5.78;;;6.00;99.90;;;;;;2121134;67;20914;-73
2022/01/23 05:08:33;;;;;;;7.38;5.45;;;6.40;99.90;;;;;;2127124;67;20365;-74
2022/01/23 05:11:16;;;;;;;11.55;5.88;;;6.00;99.90;;;;;;2143039;66;20220;-73
2022/01/23 05:14:05;;;;;;;11.95;6.93;;;6.00;99.90;;;;;;2119995;67;20189;-74
2022/01/23 05:16:48;;;;;;;7.65;5.60;;;6.00;99.90;;;;;;2132198;67;20206;-73
2022/01/23 05:19:33;;;;;;;12.00;5.78;;;6.00;99.90;;;;;;2129610;67;20883;-74
2022/01/23 05:25:03;;;;;;;9.35;5.40;;;6.00;99.90;;;;;;2117988;67;20192;-74
2022/01/23 05:27:50;;;;;;;9.02;5.30;;;6.00;99.90;;;;;;2123544;67;20810;-75
2022/01/23 05:30:37;;;;;;;7.78;5.78;;;6.00;99.90;;;;;;2113041;67;20172;-74
2022/01/23 05:33:20;;;;;;;8.43;5.38;;;6.00;99.90;;;;;;2131208;66;20409;-74
2022/01/23 05:36:02;;;;;;;8.80;5.28;;;6.20;99.90;;;;;;2135891;66;20329;-74
2022/01/23 05:38:48;;;;;;;8.88;5.68;;;6.00;99.90;;;;;;2136552;67;20191;-74
2022/01/23 05:41:33;;;;;;;8.43;5.85;;;6.30;99.90;;;;;;2124251;67;20313;-72
2022/01/23 05:44:16;;;;;;;9.75;5.25;;;6.00;99.90;;;;;;2120535;67;20709;-73
2022/01/23 05:47:00;;;;;;;11.35;5.90;;;6.00;99.90;;;;;;2125783;67;20196;-73
2022/01/23 05:49:42;;;;;;;7.65;5.75;;;5.90;99.90;;;;;;2131551;67;20309;-73
2022/01/23 05:52:25;;;;;;;10.70;5.55;;;5.90;99.90;;;;;;2104690;67;20170;-73
2022/01/23 05:55:07;;;;;;;8.65;5.20;;;5.90;99.90;;;;;;2094893;68;20371;-73
2022/01/23 05:57:49;;;;;;;8.63;6.28;;;5.90;99.90;;;;;;2097234;68;20226;-73
2022/01/23 06:00:31;;;;;;;10.40;5.55;;;6.60;99.90;;;;;;2097560;67;20320;-75
2022/01/23 06:03:13;;;;;;;9.95;6.10;;;5.90;99.90;;;;;;2104540;67;20335;-73
2022/01/23 06:05:56;;;;;;;11.35;6.35;;;5.80;99.90;;;;;;2110474;67;20270;-73
2022/01/23 06:08:40;;;;;;;;;;;5.80;99.90;;;;;;2107715;68;20325;-73
2022/01/23 06:11:23;;;;;;;9.73;6.00;;;5.90;99.90;;;;;;2106902;68;20074;-72
2022/01/23 06:14:09;;;;;;;10.18;6.25;;;5.90;99.90;;;;;;2104989;67;20339;-73
2022/01/23 06:16:52;;;;;;;12.07;6.10;;;5.90;99.90;;;;;;2111261;67;20302;-73
2022/01/23 06:19:38;;;;;;;10.65;6.60;;;5.80;99.90;;;;;;2114956;67;20221;-73
2022/01/23 06:22:21;;;;;;;9.75;6.53;;;5.80;99.90;;;;;;2126596;67;20180;-74
2022/01/23 06:25:05;;;;;;;11.63;6.88;;;5.90;99.90;;;;;;2117563;67;20374;-74
2022/01/23 06:27:47;;;;;;;11.45;6.85;;;5.90;99.90;;;;;;2126040;67;20168;-73
2022/01/23 06:30:29;;;;;;;12.02;6.30;;;5.90;99.90;;;;;;2125927;67;20204;-74
2022/01/23 06:33:11;;;;;;;9.48;6.05;;;5.90;99.90;;;;;;2111585;67;20747;-73
2022/01/23 06:35:52;;;;;;;10.48;6.57;;;5.90;99.90;;;;;;2110539;67;20709;-73
2022/01/23 06:38:35;;;;;;;8.52;5.45;;;5.90;99.90;;;;;;2101055;67;20253;-74
2022/01/23 06:41:18;;;;;;;8.80;5.63;;;5.90;99.90;;;;;;2104360;67;20332;-73
2022/01/23 06:43:59;;;;;;;8.15;5.63;;;5.90;99.90;;;;;;2111786;67;20725;-74
2022/01/23 06:46:41;;;;;;;10.73;5.50;;;5.90;99.90;;;;;;2107863;67;20311;-75
2022/01/23 06:49:26;;;;;;;11.50;5.43;;;5.90;99.90;;;;;;2119808;67;20201;-73
2022/01/23 06:52:10;;;;;;;8.95;4.88;;;5.90;99.90;;;;;;2118728;67;20425;-73
2022/01/23 06:54:53;;;;;;;8.80;5.65;;;6.30;99.90;;;;;;2111608;67;20723;-75
2022/01/23 06:57:38;;;;;;;;;;;5.80;99.90;;;;;;2113031;67;20207;-73
2022/01/23 07:00:21;;;;;;;7.95;5.70;;;5.80;99.90;;;;;;2114652;67;20632;-73
2022/01/23 07:03:10;;;;;;;10.95;6.22;;;5.80;99.90;;;;;;2107078;67;20244;-73
2022/01/23 07:05:52;;;;;;;8.60;6.43;;;5.80;99.90;;;;;;2119971;67;20650;-74
2022/01/23 07:08:34;;;;;;;14.18;7.20;;;5.80;99.90;;;;;;2116635;67;20275;-74
2022/01/23 07:11:16;;;;;;;12.30;7.55;;;5.70;99.90;;;;;;2126749;67;20248;-74
2022/01/23 07:13:58;;;;;;;10.05;7.20;;;5.60;99.90;;;;;;2140284;67;20178;-75
2022/01/23 07:16:40;;;;;;;9.30;6.80;;;5.50;99.90;;;;;;2133383;67;20176;-73
2022/01/23 07:19:21;;;;;;;12.30;6.80;;;5.50;99.90;;;;;;2135720;67;20968;-74
2022/01/23 07:22:04;;;;;;;14.95;8.63;;;5.40;99.90;;;;;;2135195;67;20308;-74
2022/01/23 07:24:47;;;;;;;10.80;7.28;;;5.40;99.90;;;;;;2123215;67;20357;-74
2022/01/23 07:27:34;;;;;;;13.65;7.50;;;5.40;99.90;;;;;;2138556;66;20199;-74
2022/01/23 07:30:37;;;;;;;14.75;8.55;;;5.30;99.90;;;;;;2130675;67;20250;-74
2022/01/23 07:33:22;;;;;;;13.15;7.57;;;5.20;99.90;;;;;;2132265;67;20228;-74
2022/01/23 07:36:04;;;;;;;13.65;7.50;;;5.20;99.90;;;;;;2132134;67;20342;-74
2022/01/23 07:38:46;;;;;;;12.05;8.18;;;5.20;99.90;;;;;;2146460;66;20352;-73
2022/01/23 07:41:28;;;;;;;12.32;6.53;;;5.20;99.90;;;;;;2131414;67;20287;-74
2022/01/23 07:44:10;;;;;;;9.90;7.85;;;5.10;99.90;;;;;;2140066;66;20326;-74
2022/01/23 07:46:54;;;;;;;11.35;7.25;;;5.10;99.90;;;;;;2159989;66;20451;-74
2022/01/23 07:49:36;;;;;;;11.35;7.13;;;5.10;99.90;;;;;;2166733;66;20193;-74
2022/01/23 07:52:19;;;;;;;12.32;8.52;;;5.10;99.90;;;;;;2149333;66;20419;-73
2022/01/23 07:55:01;;;;;;;16.67;8.32;;;5.10;99.90;;;;;;2148005;66;20189;-74
2022/01/23 07:57:43;;;;;;;11.48;8.27;;;5.10;99.90;;;;;;2161671;66;20318;-73
2022/01/23 08:00:27;;;;;;;16.17;9.07;;;5.10;99.90;;;;;;2153989;66;20259;-73
2022/01/23 08:03:09;;;;;;;12.27;7.88;;;5.10;99.90;;;;;;2142116;66;20272;-74
2022/01/23 08:05:51;;;;;;;11.45;7.68;;;5.10;99.90;;;;;;2133790;67;20196;-74
2022/01/23 08:08:34;;;;;;;12.55;8.25;;;5.10;99.90;;;;;;2130071;67;20260;-74
2022/01/23 08:11:16;;;;;;;11.73;7.55;;;5.00;99.90;;;;;;2140154;66;20167;-74
2022/01/23 08:14:01;;;;;;;11.95;6.75;;;5.10;99.90;;;;;;2146359;66;20190;-75
2022/01/23 08:16:46;;;;;;;9.90;6.90;;;5.10;99.90;;;;;;2141915;66;20261;-75
2022/01/23 08:19:29;;;;;;;10.68;6.05;;;5.10;99.90;;;;;;2139515;66;20224;-74
2022/01/23 08:22:14;;;;;;;8.07;6.07;;;5.20;99.90;;;;;;2139525;67;20344;-74
2022/01/23 08:24:57;;;;;;;9.18;6.18;;;5.30;99.90;;;;;;2136977;67;20287;-74
2022/01/23 08:27:40;;;;;;;10.57;5.78;;;5.40;99.90;;;;;;2131491;67;20160;-78
2022/01/23 08:30:25;;;;;;;11.15;6.13;;;5.40;99.90;;;;;;2117895;67;20202;-80
2022/01/23 08:33:10;;;;;;;11.55;6.53;;;5.50;99.90;;;;;;2122611;67;20172;-79
2022/01/23 08:35:56;;;;;;;9.57;5.47;;;5.50;99.90;;;;;;2120217;67;20759;-79
2022/01/23 08:38:38;;;;;;;7.32;5.60;;;5.60;99.90;;;;;;2120220;67;20181;-75
2022/01/23 08:44:07;;;;;;;7.15;4.53;;;5.80;99.90;;;;;;2123580;67;20204;-76
2022/01/23 08:46:53;;;;;;;6.65;4.57;;;5.80;99.90;;;;;;2138468;66;20840;-76
2022/01/23 08:49:44;;;;;;;6.90;4.70;;;5.80;99.90;;;;;;2119843;67;20207;-79
2022/01/23 08:52:26;;;;;;;6.97;4.97;;;5.90;99.90;;;;;;2124568;67;20328;-78
2022/01/23 08:55:10;;;;;;;8.27;4.85;;;5.90;99.90;;;;;;2112673;67;20255;-80
2022/01/23 08:57:53;;;;;;;7.68;5.63;;;6.00;99.90;;;;;;2111898;67;20275;-79
2022/01/23 09:00:34;;;;;;;8.10;5.53;;;6.70;99.90;;;;;;2118576;67;20311;-81
2022/01/23 09:03:17;;;;;;;9.77;5.57;;;6.00;99.90;;;;;;2129320;66;20265;-79
2022/01/23 09:06:07;;;;;;;;;;;6.10;99.90;;;;;;2140115;66;20267;-80
2022/01/23 09:08:53;;;;;;;10.30;6.53;;;6.10;99.90;;;;;;2137573;66;20284;-75
2022/01/23 09:11:40;;;;;;;10.50;6.40;;;6.10;99.90;;;;;;2123529;67;20314;-79
2022/01/23 09:14:22;;;;;;;8.93;6.40;;;6.10;99.90;;;;;;2124637;67;20704;-78
2022/01/23 09:17:06;;;;;;;7.47;5.65;;;6.20;99.90;;;;;;2136266;66;20427;-79
2022/01/23 09:19:52;;;;;;;10.80;6.20;;;6.20;99.90;;;;;;2124546;67;20305;-76
2022/01/23 09:22:36;;;;;;;10.55;6.55;;;6.20;99.90;;;;;;2120330;67;20248;-77
2022/01/23 09:25:18;;;;;;;9.15;6.07;;;6.40;99.90;;;;;;2117076;67;20283;-78
2022/01/23 09:28:04;;;;;;;7.00;5.28;;;6.30;99.90;;;;;;2110613;67;20327;-77
2022/01/23 09:30:51;;;;;;;;;;;6.30;99.90;;;;;;2096852;67;20287;-78
2022/01/23 09:33:32;;;;;;;8.95;5.43;;;6.40;99.90;;;;;;2103552;67;20165;-78
2022/01/23 09:36:15;;;;;;;5.88;4.25;;;7.10;99.90;;;;;;2109475;67;20598;-78
2022/01/23 09:38:58;;;;;;;7.45;4.40;;;6.60;99.90;;;;;;2104146;67;20206;-78
2022/01/23 09:41:46;;;;;;;6.28;4.18;;;6.80;99.90;;;;;;2097306;68;20415;-79
2022/01/23 09:44:35;;;;;;;6.15;4.03;;;6.90;99.90;;;;;;2086221;68;20729;-77
2022/01/23 09:47:20;;;;;;;4.75;3.55;;;6.90;99.90;;;;;;2090281;68;20321;-80
2022/01/23 09:50:03;;;;;;;5.38;3.47;;;6.90;99.90;;;;;;2087439;68;20848;-79
2022/01/23 09:52:46;;;;;;;6.80;4.07;;;7.00;99.90;;;;;;2081420;68;20337;-78
2022/01/23 09:55:33;;;;;;;5.05;3.63;;;7.00;99.90;;;;;;2092936;68;20779;-79
2022/01/23 09:58:17;;;;;;;6.57;3.75;;;7.10;99.90;;;;;;2100864;68;20323;-78
2022/01/23 10:01:02;;;;;;;7.00;3.75;;;7.10;99.90;;;;;;2098653;67;20509;-79
2022/01/23 10:03:47;;;;;;;4.82;3.60;;;7.20;99.90;;;;;;2102299;67;20752;-80
2022/01/23 10:06:29;;;;;;;4.60;3.55;;;7.20;99.90;;;;;;2116226;67;20327;-79
2022/01/23 10:09:11;;;;;;;5.57;3.92;;;7.30;99.90;;;;;;2111911;67;20337;-79
2022/01/23 10:11:54;;;;;;;5.55;3.15;;;7.40;99.90;;;;;;2112270;67;20248;-81
2022/01/23 10:14:42;;;;;;;4.05;2.42;;;7.60;99.90;;;;;;2111618;67;20324;-81
2022/01/23 10:17:24;;;;;;;2.90;2.25;;;8.60;99.90;;;;;;2104035;67;20194;-73
2022/01/23 10:20:13;;;;;;;3.50;2.20;;;7.50;99.90;;;;;;2110139;67;20424;-80
2022/01/23 10:22:57;;;;;;;1.70;1.60;;;7.80;99.90;;;;;;2098004;68;20834;-80
2022/01/23 10:25:43;;;;;;;2.42;1.70;;;7.60;99.90;;;;;;2099227;67;20662;-82
2022/01/23 10:28:29;;;;;;;2.45;1.70;;;7.60;99.90;;;;;;2110224;67;20350;-82
2022/01/23 10:31:15;;;;;;;2.90;2.08;;;7.60;99.90;;;;;;2109543;67;20885;-85
2022/01/23 10:34:00;;;;;;;;;;;7.60;99.90;;;;;;2106623;67;20345;-84
2022/01/23 10:36:51;;;;;;;2.75;2.42;;;7.60;99.90;;;;;;2113230;67;20284;-83
2022/01/23 10:39:46;;;;;;;3.70;2.65;;;7.70;99.90;;;;;;2108538;67;20820;-79
2022/01/23 10:48:47;;;;;;;4.88;2.67;;;7.70;99.90;;;;;;2121549;67;20369;-81
2022/01/23 10:51:36;;;;;;;5.00;3.08;;;7.80;99.90;;;;;;2111283;67;20346;-82
2022/01/23 10:54:22;;;;;;;4.72;3.70;;;7.80;99.90;;;;;;2092715;68;20216;-83
2022/01/23 10:57:07;;;;;;;;;;;7.90;99.90;;;;;;2099736;68;20698;-84
2022/01/23 10:59:54;;;;;;;3.00;2.28;;;7.90;99.90;;;;;;2104899;67;20199;-82
2022/01/23 11:02:41;;;;;;;4.13;2.40;;;7.90;99.90;;;;;;2104765;67;20182;-85
2022/01/23 11:05:53;;;;;;;3.17;2.55;;;7.90;99.90;;;;;;2121423;67;20196;-83
2022/01/23 11:08:41;;;;;;;3.00;2.30;;;8.00;99.90;;;;;;2113036;67;20317;-83
2022/01/23 11:11:43;;;;;;;3.15;2.22;;;8.00;99.90;;;;;;2129641;67;20168;-80
2022/01/23 11:17:27;;;;;;;2.88;1.58;;;8.00;99.90;;;;;;2131656;67;20175;-79
2022/01/23 11:20:09;;;;;;;3.05;2.28;;;8.00;99.90;;;;;;2131593;67;20439;-80
2022/01/23 11:23:11;;;;;;;5.00;2.97;;;8.00;99.90;;;;;;2144525;66;20729;-79
2022/01/23 11:25:56;;;;;;;2.90;2.20;;;8.00;99.90;;;;;;2140826;66;20234;-82
2022/01/23 11:28:47;;;;;;;3.17;1.98;;;8.10;99.90;;;;;;2138222;67;20298;-82
2022/01/23 11:31:29;;;;;;;2.58;2.28;;;8.10;99.90;;;;;;2116039;67;21049;-80
2022/01/23 11:34:14;;;;;;;3.33;2.20;;;8.00;99.90;;;;;;2114893;67;20341;-79
2022/01/23 11:36:57;;;;;;;2.80;2.10;;;8.00;99.90;;;;;;2114322;67;20274;-78
2022/01/23 11:39:50;;;;;;;2.70;1.92;;;8.00;99.90;;;;;;2119001;67;20236;-78
2022/01/23 11:54:58;;;;;;;3.47;2.20;;;8.00;99.90;;;;;;2139412;66;20434;-75
2022/01/23 11:57:42;;;;;;;2.47;1.95;;;8.00;99.90;;;;;;2152096;66;20197;-76
2022/01/23 12:00:26;;;;;;;3.33;2.15;;;8.10;99.90;;;;;;2160273;66;20725;-78
2022/01/23 12:03:19;;;;;;;3.78;1.90;;;8.10;99.90;;;;;;2153899;66;20199;-76
2022/01/23 12:06:14;;;;;;;1.98;1.67;;;8.20;99.90;;;;;;2139324;66;20510;-76
2022/01/23 12:09:17;;;;;;;4.20;2.13;;;8.30;99.90;;;;;;2140116;66;20361;-77
2022/01/23 12:18:30;;;;;;;3.70;2.80;;;8.20;99.90;;;;;;2138590;66;20669;-76
2022/01/23 12:21:30;;;;;;;3.30;2.30;;;8.20;99.90;;;;;;2160226;66;20275;-76
2022/01/23 12:24:14;;;;;;;3.97;3.28;;;8.20;99.90;;;;;;2160158;66;20229;-77
2022/01/23 12:27:23;;;;;;;3.92;3.03;;;8.30;99.90;;;;;;2153860;66;20693;-77
2022/01/23 12:30:33;;;;;;;6.13;3.50;;;8.20;99.90;;;;;;2155914;66;20213;-77
2022/01/23 12:33:30;;;;;;;3.30;2.47;;;8.10;99.90;;;;;;2139364;66;20218;-77
2022/01/23 12:36:14;;;;;;;5.28;4.43;;;8.10;99.90;;;;;;2141396;66;20273;-77
2022/01/23 12:38:58;;;;;;;4.93;2.95;;;8.10;99.90;;;;;;2139820;66;20565;-78
2022/01/23 12:41:52;;;;;;;3.47;3.17;;;8.10;99.90;;;;;;2135787;66;20175;-76
2022/01/23 12:44:38;;;;;;;5.57;3.72;;;8.10;99.90;;;;;;2142189;66;20738;-75
2022/01/23 12:47:42;;;;;;;7.55;4.40;;;8.30;99.90;;;;;;2142473;66;20289;-76
2022/01/23 12:50:43;;;;;;;5.20;3.88;;;8.20;99.90;;;;;;2146364;66;20162;-76
2022/01/23 12:53:43;;;;;;;4.05;2.42;;;8.10;99.90;;;;;;2134058;66;20375;-77
2022/01/23 12:56:41;;;;;;;1.95;1.70;;;8.10;99.90;;;;;;2128320;67;20253;-77
2022/01/23 12:59:32;;;;;;;2.05;1.88;;;8.20;99.90;;;;;;2126713;67;20317;-78
2022/01/23 13:02:18;;;;;;;3.15;1.92;;;8.20;99.90;;;;;;2131379;67;20183;-79
2022/01/23 13:05:00;;;;;;;2.88;2.10;;;8.10;99.90;;;;;;2118802;67;20361;-77
2022/01/23 13:16:26;;;;;;;4.53;2.95;;;8.20;99.90;;;;;;2128273;67;20421;-78
2022/01/23 13:31:09;;;;;;;5.22;4.38;;;8.20;99.90;;;;;;2110912;67;20256;-77
2022/01/23 13:33:51;;;;;;;5.32;3.53;;;8.10;99.90;;;;;;2124304;67;20267;-77
2022/01/23 13:36:34;;;;;;;5.50;4.50;;;8.10;99.90;;;;;;2124509;67;20224;-78
2022/01/23 13:39:52;;;;;;;7.80;4.30;;;8.10;99.90;;;;;;2113053;67;20198;-77
2022/01/23 13:52:00;;;;;;;4.85;3.60;;;8.00;99.90;;;;;;2121515;67;20376;-79
2022/01/23 13:58:33;;;;;;;3.25;2.95;;;8.00;99.90;;;;;;2138626;66;20351;-77
2022/01/23 14:01:50;;;;;;;4.63;3.60;;;7.90;99.90;;;;;;2128693;67;20199;-78
2022/01/23 14:04:18;;;;;;;5.22;3.20;;;7.80;99.90;;;;;;2127164;67;20825;-77
2022/01/23 14:07:00;;;;;;;3.92;3.13;;;7.80;99.90;;;;;;2110865;67;20603;-76
2022/01/23 14:09:45;;;;;;;6.03;3.58;;;7.80;99.90;;;;;;2104417;67;20248;-77
2022/01/23 14:12:31;;;;;;;4.15;3.33;;;7.80;99.90;;;;;;2103088;67;20272;-77
2022/01/23 14:15:16;;;;;;;5.47;3.67;;;7.80;99.90;;;;;;2097174;68;20175;-78
2022/01/23 14:18:02;;;;;;;5.47;3.40;;;7.80;99.90;;;;;;2093893;68;20752;-77
2022/01/23 14:20:54;;;;;;;6.22;4.10;;;7.80;99.90;;;;;;2089014;68;20501;-76
2022/01/23 14:23:37;;;;;;;5.35;3.97;;;7.80;99.90;;;;;;2089988;68;20191;-77
2022/01/23 14:26:20;;;;;;;5.32;3.85;;;7.80;99.90;;;;;;2088688;68;20383;-78
2022/01/23 14:29:09;;;;;;;6.53;4.13;;;7.80;99.90;;;;;;2099403;67;20865;-78
2022/01/23 14:32:26;;;;;;;5.10;3.83;;;7.80;99.90;;;;;;2103202;67;20174;-78
2022/01/23 14:35:24;;;;;;;5.65;5.03;;;7.80;99.90;;;;;;2118539;67;20185;-79
2022/01/23 14:38:17;;;;;;;7.30;5.28;;;7.80;99.90;;;;;;2114352;67;20202;-78
2022/01/23 14:41:18;;;;;;;7.05;4.07;;;7.70;99.90;;;;;;2107146;67;20177;-78
2022/01/23 14:44:21;;;;;;;6.32;3.97;;;7.70;99.90;;;;;;2116646;67;20727;-79
2022/01/23 14:47:03;;;;;;;7.88;4.32;;;7.70;99.90;;;;;;2119269;67;20233;-78
2022/01/23 14:49:47;;;;;;;6.78;4.45;;;7.70;99.90;;;;;;2124255;67;20192;-78
2022/01/23 14:52:21;;;;;;;6.07;4.28;;;7.60;99.90;;;;;;2128429;67;20216;-78
2022/01/23 14:54:58;;;;;;;4.70;4.18;;;7.60;99.90;;;;;;2132364;67;20184;-79
2022/01/23 14:57:50;;;;;;;5.43;4.03;;;7.60;99.90;;;;;;2144201;66;20753;-77
2022/01/23 15:00:29;;;;;;;13.57;12.30;;;7.60;99.90;;;;;;2146804;66;20200;-77
2022/01/23 15:03:06;;;;;;;6.32;5.45;;;7.50;99.90;;;;;;2146268;66;20222;-79
2022/01/23 15:06:00;;;;;;;7.00;5.00;;;7.50;99.90;;;;;;2139379;67;20240;-78
2022/01/23 15:08:39;;;;;;;11.23;9.55;;;7.50;99.90;;;;;;2148375;66;20200;-77
2022/01/23 15:11:29;;;;;;;6.28;4.57;;;7.50;99.90;;;;;;2163041;66;20198;-78
2022/01/23 15:14:10;;;;;;;5.80;4.70;;;7.50;99.90;;;;;;2169126;65;20168;-77
2022/01/23 15:17:01;;;;;;;7.32;5.03;;;7.50;99.90;;;;;;2166136;65;20207;-77
2022/01/23 15:19:39;;;;;;;5.93;4.53;;;7.50;99.90;;;;;;2183064;65;20246;-77
2022/01/23 15:22:29;;;;;;;4.75;3.33;;;7.50;99.90;;;;;;2183228;65;20412;-77
2022/01/23 15:25:09;;;;;;;6.07;5.38;;;7.40;99.90;;;;;;2183090;65;20208;-77
2022/01/23 15:27:48;;;;;;;5.28;3.92;;;7.40;99.90;;;;;;2183315;65;20179;-76
2022/01/23 15:30:42;;;;;;;7.38;4.70;;;7.40;99.90;;;;;;2190113;65;20764;-77
2022/01/23 15:33:21;;;;;;;4.28;3.42;;;7.40;99.90;;;;;;2190540;65;20728;-76
2022/01/23 15:36:13;;;;;;;6.13;3.80;;;7.30;99.90;;;;;;2197382;65;20263;-77
2022/01/23 15:38:55;;;;;;;4.72;3.75;;;7.30;99.90;;;;;;2198435;65;20198;-77
2022/01/23 15:41:46;;;;;;;5.40;3.75;;;7.30;99.90;;;;;;2190694;65;20362;-77
2022/01/23 15:44:37;;;;;;;6.03;3.97;;;7.30;99.90;;;;;;2174887;65;20631;-77
2022/01/23 15:47:14;;;;;;;4.45;3.53;;;7.30;99.90;;;;;;2177454;65;20225;-76
2022/01/23 15:49:51;;;;;;;5.05;3.50;;;7.30;99.90;;;;;;2182302;65;20210;-77
2022/01/23 15:52:35;;;;;;;5.40;3.92;;;7.30;99.90;;;;;;2168963;65;20377;-77
2022/01/23 15:55:20;;;;;;;4.47;3.65;;;7.20;99.90;;;;;;2173798;65;20266;-77
2022/01/23 15:58:02;;;;;;;7.10;5.55;;;7.20;99.90;;;;;;2175122;65;20253;-78
2022/01/23 16:00:43;;;;;;;4.70;4.15;;;7.20;99.90;;;;;;2165020;66;20423;-78
2022/01/23 16:03:27;;;;;;;4.97;4.15;;;7.20;99.90;;;;;;2153623;66;20560;-79
2022/01/23 16:06:09;;;;;;;4.32;3.10;;;7.70;99.90;;;;;;2160983;66;20273;-77
2022/01/23 16:08:50;;;;;;;4.93;3.28;;;7.60;99.90;;;;;;2146725;66;20818;-78
2022/01/23 16:11:32;;;;;;;6.68;4.03;;;7.20;99.90;;;;;;2136862;66;20339;-78
2022/01/23 16:14:17;;;;;;;6.90;4.30;;;7.10;99.90;;;;;;2132301;67;20331;-77
2022/01/23 16:16:59;;;;;;;6.38;4.30;;;7.10;99.90;;;;;;2120103;67;20324;-77
2022/01/23 16:19:41;;;;;;;6.35;3.20;;;7.10;99.90;;;;;;2113378;67;20177;-77
2022/01/23 16:22:23;;;;;;;6.53;3.92;;;7.10;99.90;;;;;;2109350;67;21022;-78
2022/01/23 16:25:10;;;;;;;4.07;3.25;;;7.10;99.90;;;;;;2091711;68;20332;-76
2022/01/23 16:27:51;;;;;;;5.35;4.20;;;7.10;99.90;;;;;;2107740;67;20231;-78
2022/01/23 16:30:52;;;;;;;4.93;3.78;;;7.00;99.90;;;;;;2096925;67;20371;-76
2022/01/23 16:33:34;;;;;;;6.05;4.13;;;7.10;99.90;;;;;;2103960;67;20336;-76
2022/01/23 16:36:18;;;;;;;5.63;4.43;;;7.10;99.90;;;;;;2100220;67;20334;-77
2022/01/23 16:39:02;;;;;;;6.55;4.78;;;7.10;99.90;;;;;;2114079;67;20377;-81
2022/01/23 16:41:47;;;;;;;9.40;5.22;;;7.00;99.90;;;;;;2109416;67;20436;-80
2022/01/23 16:44:31;;;;;;;7.38;4.35;;;7.00;99.90;;;;;;2114843;67;20313;-80
2022/01/23 16:47:14;;;;;;;5.72;4.22;;;7.00;99.90;;;;;;2129627;67;20273;-78
2022/01/23 16:49:56;;;;;;;6.15;5.15;;;7.00;99.90;;;;;;2114857;67;20199;-81
2022/01/23 16:52:41;;;;;;;4.28;3.65;;;7.00;99.90;;;;;;2118109;67;20210;-82
2022/01/23 16:55:23;;;;;;;6.43;4.55;;;7.00;99.90;;;;;;2129327;67;20245;-80
2022/01/23 16:58:06;;;;;;;25.92;16.13;;;7.00;99.90;;;;;;2121148;67;20405;-81
2022/01/23 17:00:49;;;;;;;58.58;34.30;;;7.00;99.90;;;;;;2112621;67;20323;-81
2022/01/23 17:03:30;;;;;;;111.82;65.22;;;7.00;99.90;;;;;;2116633;67;20280;-81
2022/01/23 17:06:13;;;;;;;8.90;6.15;;;7.00;99.90;;;;;;2127505;67;20277;-79
2022/01/23 17:08:56;;;;;;;9.13;6.43;;;7.00;99.90;;;;;;2140974;67;20214;-74
2022/01/23 17:11:38;;;;;;;6.30;5.10;;;7.00;99.90;;;;;;2141283;67;20379;-85
2022/01/23 17:14:21;;;;;;;5.47;4.65;;;6.90;99.90;;;;;;2146103;67;20401;-80
2022/01/23 17:17:03;;;;;;;10.25;8.18;;;6.90;99.90;;;;;;2147365;66;20362;-82
2022/01/23 17:19:48;;;;;;;6.35;4.97;;;6.90;99.90;;;;;;2141016;66;20355;-83
2022/01/23 17:22:35;;;;;;;8.73;6.25;;;6.90;99.90;;;;;;2130366;67;20171;-83
2022/01/23 17:25:19;;;;;;;8.48;5.65;;;6.90;99.90;;;;;;2131852;67;20289;-80
2022/01/23 17:28:01;;;;;;;8.05;5.78;;;6.90;99.90;;;;;;2123329;67;20365;-75
2022/01/23 17:30:43;;;;;;;12.00;4.68;;;6.90;99.90;;;;;;2120431;67;20200;-75
2022/01/23 17:33:26;;;;;;;6.03;4.25;;;6.90;99.90;;;;;;2123252;67;20204;-75
2022/01/23 17:36:13;;;;;;;7.60;5.25;;;6.80;99.90;;;;;;2134981;66;20789;-74
2022/01/23 17:38:55;;;;;;;7.63;5.10;;;6.80;99.90;;;;;;2131347;67;20204;-75
2022/01/23 17:41:41;;;;;;;4.90;4.40;;;6.80;99.90;;;;;;2137338;67;20340;-75
2022/01/23 17:44:28;;;;;;;10.60;9.07;;;6.80;99.90;;;;;;2138663;67;20332;-74
2022/01/23 17:50:21;;;;;;;12.98;11.82;;;6.80;99.90;;;;;;2130510;67;20407;-76
2022/01/23 17:53:05;;;;;;;7.70;6.30;;;6.80;99.90;;;;;;2134033;66;20264;-75
2022/01/23 17:55:49;;;;;;;4.95;4.45;;;6.80;99.90;;;;;;2145006;66;20382;-76
2022/01/23 17:58:31;;;;;;;7.25;4.63;;;6.80;99.90;;;;;;2136208;66;20174;-75
2022/01/23 18:01:14;;;;;;;6.10;4.25;;;6.80;99.90;;;;;;2147432;66;20257;-79
2022/01/23 18:03:57;;;;;;;8.18;4.60;;;6.80;99.90;;;;;;2145417;66;20170;-78
2022/01/23 18:06:43;;;;;;;5.78;4.18;;;6.80;99.90;;;;;;2155642;66;20211;-85